Time;durP1;ratioP1;P1;durP2;ratioP2;P2;SDS_P1;SDS_P2;PMS_P1;PMS_P2;Temp;Humidity;BMP_temperature;BMP_pressure;BME280_temperature;BME280_humidity;BME280_pressure;Samples;Min_cycle;Max_cycle;Signal;HPM_P1;HPM_P2
2022/01/22 00:00:17;;;;;;;33.88;5.47;;;;;;;;;;5079542;28;20976;-74
2022/01/22 00:02:43;;;;;;;31.17;5.25;;;;;;;;;;5072107;28;20516;-74
2022/01/22 00:05:10;;;;;;;28.90;5.45;;;;;;;;;;5060472;28;20580;-75
2022/01/22 00:07:37;;;;;;;33.20;5.25;;;;;;;;;;5068166;28;20418;-75
2022/01/22 00:10:07;;;;;;;25.58;5.00;;;;;;;;;;5057403;28;20431;-75
2022/01/22 00:15:03;;;;;;;39.97;5.82;;;;;;;;;;5079014;28;20919;-75
2022/01/22 00:17:29;;;;;;;30.77;5.18;;;;;;;;;;5062869;28;20443;-75
2022/01/22 00:19:55;;;;;;;30.70;5.20;;;;;;;;;;5104953;27;20427;-75
2022/01/22 00:22:26;;;;;;;26.38;5.38;;;;;;;;;;5088049;28;20419;-75
2022/01/22 00:24:56;;;;;;;31.42;5.00;;;;;;;;;;5094570;28;20425;-75
2022/01/22 00:27:22;;;;;;;29.30;4.40;;;;;;;;;;5056860;28;20427;-75
2022/01/22 00:29:49;;;;;;;32.70;4.78;;;;;;;;;;5057339;28;20437;-75
2022/01/22 00:32:15;;;;;;;32.33;5.00;;;;;;;;;;5076245;28;20471;-75
2022/01/22 00:34:42;;;;;;;28.33;5.38;;;;;;;;;;5074513;28;20427;-74
2022/01/22 00:37:08;;;;;;;28.80;4.75;;;;;;;;;;5109028;27;20452;-75
2022/01/22 00:39:35;;;;;;;35.03;5.68;;;;;;;;;;5063229;28;20412;-75
2022/01/22 00:42:12;;;;;;;23.88;5.00;;;;;;;;;;5087499;28;20424;-75
2022/01/22 00:44:38;;;;;;;32.53;5.70;;;;;;;;;;5070401;28;20469;-75
2022/01/22 00:47:04;;;;;;;25.67;5.00;;;;;;;;;;5113395;27;20547;-75
2022/01/22 00:49:30;;;;;;;27.17;5.07;;;;;;;;;;5072600;28;20980;-75
2022/01/22 00:51:57;;;;;;;26.05;5.03;;;;;;;;;;5083330;28;20411;-76
2022/01/22 00:54:23;;;;;;;23.33;5.22;;;;;;;;;;5091561;28;20416;-76
2022/01/22 00:56:49;;;;;;;26.48;5.90;;;;;;;;;;5075142;28;20909;-76
2022/01/22 00:59:15;;;;;;;23.37;4.83;;;;;;;;;;5057629;28;20788;-75
2022/01/22 01:01:42;;;;;;;24.00;4.35;;;;;;;;;;5060204;28;20454;-75
2022/01/22 01:04:10;;;;;;;28.02;4.95;;;;;;;;;;5064532;28;20976;-75
2022/01/22 01:06:36;;;;;;;21.00;3.88;;;;;;;;;;5105168;27;20434;-75
2022/01/22 01:09:05;;;;;;;27.98;5.47;;;;;;;;;;5111154;27;20452;-75
2022/01/22 01:11:34;;;;;;;26.33;4.73;;;;;;;;;;5070544;28;20474;-76
2022/01/22 01:14:03;;;;;;;25.23;4.55;;;;;;;;;;5069292;28;20428;-75
2022/01/22 01:35:26;;;;;;;27.00;4.50;;;;;;;;;;5083824;28;20427;-75
2022/01/22 01:37:55;;;;;;;27.88;4.38;;;;;;;;;;5058848;28;20416;-75
2022/01/22 01:40:23;;;;;;;23.00;4.32;;;;;;;;;;5059871;28;20415;-75
2022/01/22 01:43:06;;;;;;;21.48;4.10;;;;;;;;;;5075036;28;20507;-75
2022/01/22 01:45:32;;;;;;;16.40;3.75;;;;;;;;;;5070547;28;20423;-74
2022/01/22 01:48:02;;;;;;;15.43;3.83;;;;;;;;;;5075661;28;20828;-75
2022/01/22 01:50:30;;;;;;;15.02;4.25;;;;;;;;;;5078904;28;20454;-75
2022/01/22 01:53:10;;;;;;;16.15;3.20;;;;;;;;;;5076179;28;20455;-75
2022/01/22 01:56:02;;;;;;;15.38;3.15;;;;;;;;;;5106680;27;20506;-75
2022/01/22 01:58:28;;;;;;;16.83;3.00;;;;;;;;;;5079248;28;20417;-75
2022/01/22 02:00:55;;;;;;;13.40;3.00;;;;;;;;;;5100591;27;20413;-75
2022/01/22 02:03:21;;;;;;;11.52;2.70;;;;;;;;;;5074986;28;20741;-75
2022/01/22 02:05:47;;;;;;;12.82;2.72;;;;;;;;;;5069874;28;20419;-75
2022/01/22 02:08:15;;;;;;;10.48;2.28;;;;;;;;;;5069799;28;20436;-75
2022/01/22 02:10:47;;;;;;;12.32;2.60;;;;;;;;;;5071357;28;20512;-76
2022/01/22 02:24:17;;;;;;;11.50;2.63;;;;;;;;;;5082400;28;20477;-75
2022/01/22 02:26:47;;;;;;;9.38;2.95;;;;;;;;;;5105424;27;20439;-75
2022/01/22 02:29:13;;;;;;;12.40;2.45;;;;;;;;;;5082010;28;20422;-76
2022/01/22 02:31:53;;;;;;;10.02;2.65;;;;;;;;;;5069634;28;20929;-76
2022/01/22 02:34:31;;;;;;;10.52;2.50;;;;;;;;;;5061328;28;20626;-76
2022/01/22 02:37:06;;;;;;;7.68;2.22;;;;;;;;;;5069155;28;20931;-76
2022/01/22 02:39:41;;;;;;;8.73;2.40;;;;;;;;;;5077862;28;20437;-76
2022/01/22 02:42:07;;;;;;;9.73;2.70;;;;;;;;;;5062240;28;20782;-76
2022/01/22 02:44:36;;;;;;;10.27;2.10;;;;;;;;;;5072803;28;20422;-76
2022/01/22 02:47:05;;;;;;;10.60;2.10;;;;;;;;;;5072314;28;20423;-76
2022/01/22 02:49:31;;;;;;;11.80;2.30;;;;;;;;;;5073494;28;20453;-76
2022/01/22 02:52:01;;;;;;;8.52;2.15;;;;;;;;;;5069440;28;20439;-76
2022/01/22 02:54:27;;;;;;;10.20;2.03;;;;;;;;;;5101865;27;20427;-76
2022/01/22 02:56:53;;;;;;;11.77;2.35;;;;;;;;;;5102357;28;21500;-76
2022/01/22 02:59:22;;;;;;;8.77;2.45;;;;;;;;;;5074987;28;20475;-75
2022/01/22 03:01:48;;;;;;;10.65;2.42;;;;;;;;;;5072843;28;20428;-75
2022/01/22 03:04:15;;;;;;;6.78;2.28;;;;;;;;;;5075116;28;20427;-74
2022/01/22 03:06:41;;;;;;;14.60;2.65;;;;;;;;;;5053861;28;20434;-75
2022/01/22 03:09:09;;;;;;;7.80;2.20;;;;;;;;;;5074743;28;20432;-75
2022/01/22 03:11:45;;;;;;;10.88;2.60;;;;;;;;;;5069222;28;20434;-74
2022/01/22 03:17:11;;;;;;;11.10;2.38;;;;;;;;;;5060591;28;20495;-75
2022/01/22 03:22:43;;;;;;;11.63;2.30;;;;;;;;;;5058620;28;20425;-75
2022/01/22 03:27:43;;;;;;;12.73;2.30;;;;;;;;;;5110916;27;20502;-76
2022/01/22 03:30:10;;;;;;;11.57;2.63;;;;;;;;;;5092934;28;20430;-76
2022/01/22 03:32:41;;;;;;;9.95;2.28;;;;;;;;;;5057100;28;20434;-75
2022/01/22 03:35:26;;;;;;;10.18;2.30;;;;;;;;;;5097220;28;20422;-76
2022/01/22 03:37:57;;;;;;;9.70;2.55;;;;;;;;;;5101913;27;20419;-75
2022/01/22 03:40:25;;;;;;;10.50;2.53;;;;;;;;;;5089711;28;20456;-75
2022/01/22 03:42:52;;;;;;;8.25;2.47;;;6.80;99.90;;;;;;5055935;28;20469;-75
2022/01/22 03:45:19;;;;;;;12.38;2.60;;;;;;;;;;5072385;28;20463;-76
2022/01/22 03:47:46;;;;;;;8.83;2.60;;;;;;;;;;5063586;28;20494;-75
2022/01/22 03:50:13;;;;;;;12.32;2.60;;;;;;;;;;5063705;28;20404;-75
2022/01/22 03:52:39;;;;;;;11.87;2.83;;;;;;;;;;5058585;28;20949;-75
2022/01/22 03:55:07;;;;;;;10.13;2.67;;;;;;;;;;5057422;28;20533;-75
2022/01/22 03:57:33;;;;;;;12.82;2.45;;;;;;;;;;5066699;28;20420;-75
2022/01/22 04:00:00;;;;;;;11.25;2.67;;;;;;;;;;5071308;28;20452;-75
2022/01/22 04:05:00;;;;;;;13.63;3.17;;;;;;;;;;5106103;27;20423;-76
2022/01/22 04:10:06;;;;;;;9.18;2.72;;;;;;;;;;5074570;28;21029;-75
2022/01/22 04:12:47;;;;;;;10.63;2.60;;;;;;;;;;5096234;28;20457;-75
2022/01/22 04:15:16;;;;;;;9.00;2.55;;;;;;;;;;5067493;28;20471;-76
2022/01/22 04:25:52;;;;;;;12.27;2.85;;;;;;;;;;5078759;28;20421;-75
2022/01/22 04:28:18;;;;;;;14.00;3.10;;;;;;;;;;5061168;28;20452;-76
2022/01/22 04:30:46;;;;;;;12.57;3.03;;;;;;;;;;5055478;28;20955;-75
2022/01/22 04:33:12;;;;;;;7.38;2.65;;;;;;;;;;5108478;27;20420;-75
2022/01/22 04:35:38;;;;;;;8.77;2.28;;;;;;;;;;5063533;28;20423;-75
2022/01/22 04:38:04;;;;;;;15.27;2.92;;;;;;;;;;5071100;28;20459;-76
2022/01/22 04:40:31;;;;;;;10.70;2.42;;;;;;;;;;5076504;28;20456;-75
2022/01/22 04:42:59;;;;;;;11.18;2.47;;;;;;;;;;5084364;28;20415;-75
2022/01/22 04:45:48;;;;;;;6.63;2.30;;;;;;;;;;5087241;28;20526;-75
2022/01/22 04:55:54;;;;;;;10.55;2.35;;;;;;;;;;5086061;28;20495;-75
2022/01/22 04:58:20;;;;;;;9.85;1.98;;;;;;;;;;5055158;28;20427;-75
2022/01/22 05:00:46;;;;;;;9.45;2.15;;;;;;;;;;5076937;28;20415;-75
2022/01/22 05:03:14;;;;;;;7.97;1.95;;;;;;;;;;5059889;28;20463;-76
2022/01/22 05:05:40;;;;;;;5.97;2.10;;;;;;;;;;5070783;28;20510;-76
2022/01/22 05:08:06;;;;;;;7.65;2.15;;;;;;;;;;5095546;28;20819;-75
2022/01/22 05:10:33;;;;;;;12.33;2.50;;;;;;;;;;5070682;28;20433;-75
2022/01/22 05:12:59;;;;;;;9.48;2.33;;;;;;;;;;5087845;28;20427;-76
2022/01/22 05:15:25;;;;;;;11.60;2.47;;;;;;;;;;5063668;28;20422;-76
2022/01/22 05:17:51;;;;;;;12.05;2.28;;;;;;;;;;5069074;28;20424;-76
2022/01/22 05:20:26;;;;;;;11.00;2.50;;;;;;;;;;5078115;28;20421;-76
2022/01/22 05:25:30;;;;;;;11.70;2.10;;;;;;;;;;5076977;28;20423;-74
2022/01/22 05:38:43;;;;;;;10.35;2.33;;;;;;;;;;5077158;28;20421;-75
2022/01/22 05:41:11;;;;;;;12.90;2.13;;;;;;;;;;5065826;28;20768;-76
2022/01/22 05:43:37;;;;;;;9.30;2.60;;;;;;;;;;5072423;28;20902;-75
2022/01/22 05:46:03;;;;;;;13.23;2.58;;;;;;;;;;5107644;27;20422;-75
2022/01/22 05:48:30;;;;;;;8.97;2.30;;;;;;;;;;5087487;28;20513;-75
2022/01/22 05:51:00;;;;;;;13.27;2.40;;;;;;;;;;5053295;28;20474;-74
2022/01/22 06:01:16;;;;;;;10.60;2.40;;;;;;;;;;5077511;28;20499;-75
2022/01/22 06:03:43;;;;;;;10.25;2.83;;;;;;;;;;5077829;28;20419;-74
2022/01/22 06:06:09;;;;;;;14.77;2.90;;;;;;;;;;5068644;28;20472;-75
2022/01/22 06:08:41;;;;;;;12.20;3.22;;;;;;;;;;5086848;28;20756;-74
2022/01/22 06:11:09;;;;;;;15.18;3.15;;;;;;;;;;5069919;28;20422;-74
2022/01/22 06:13:46;;;;;;;10.18;2.92;;;;;;;;;;5055245;28;20961;-75
2022/01/22 06:16:13;;;;;;;12.30;2.90;;;;;;;;;;5063089;28;20909;-74
2022/01/22 06:18:39;;;;;;;10.98;2.92;;;;;;;;;;5084740;28;20409;-75
2022/01/22 06:21:06;;;;;;;10.07;2.95;;;6.80;99.90;;;;;;5053371;28;20923;-75
2022/01/22 06:23:32;;;;;;;9.80;2.63;;;;;;;;;;5052800;28;20493;-75
2022/01/22 06:26:00;;;;;;;11.30;2.80;;;;;;;;;;5102121;27;20419;-75
2022/01/22 06:28:27;;;;;;;9.25;2.90;;;;;;;;;;5081928;28;20895;-75
2022/01/22 06:30:53;;;;;;;12.23;3.20;;;;;;;;;;5076596;28;20415;-75
2022/01/22 06:33:19;;;;;;;12.63;3.08;;;;;;;;;;5103626;27;20911;-75
2022/01/22 06:35:45;;;;;;;12.77;3.67;;;;;;;;;;5057373;28;20431;-74
2022/01/22 06:38:12;;;;;;;14.93;3.50;;;;;;;;;;5110719;27;20412;-73
2022/01/22 06:43:04;;;;;;;11.95;3.38;;;;;;;;;;5076953;28;20908;-74
2022/01/22 06:45:31;;;;;;;12.65;3.25;;;;;;;;;;5061115;28;20477;-76
2022/01/22 06:47:57;;;;;;;12.15;3.20;;;;;;;;;;5084129;28;20431;-75
2022/01/22 06:50:23;;;;;;;9.98;3.10;;;;;;;;;;5053064;28;20500;-75
2022/01/22 06:52:56;;;;;;;10.50;2.90;;;;;;;;;;5084936;28;20419;-75
2022/01/22 06:55:32;;;;;;;14.60;3.20;;;;;;;;;;5068111;28;20443;-75
2022/01/22 06:57:58;;;;;;;10.07;2.88;;;;;;;;;;5087061;28;20429;-75
2022/01/22 07:00:24;;;;;;;13.23;2.93;;;;;;;;;;5080544;28;20464;-76
2022/01/22 07:02:50;;;;;;;10.40;2.58;;;;;;;;;;5076344;28;20914;-74
2022/01/22 07:05:16;;;;;;;8.57;2.40;;;;;;;;;;5088104;28;20550;-75
2022/01/22 07:07:42;;;;;;;11.93;2.40;;;;;;;;;;5077495;28;20422;-74
2022/01/22 07:10:09;;;;;;;11.20;2.50;;;;;;;;;;5075552;28;20519;-74
2022/01/22 07:12:35;;;;;;;7.28;2.28;;;;;;;;;;5068472;28;20462;-75
2022/01/22 07:15:02;;;;;;;11.90;2.83;;;;;;;;;;5053558;28;20434;-75
2022/01/22 07:17:34;;;;;;;9.70;2.35;;;;;;;;;;5071660;28;20511;-75
2022/01/22 07:20:00;;;;;;;10.48;3.08;;;;;;;;;;5052439;28;20426;-75
2022/01/22 07:25:13;;;;;;;9.25;2.63;;;;;;;;;;5109489;28;20498;-76
2022/01/22 07:27:49;;;;;;;10.57;2.70;;;;;;;;;;5075359;28;20447;-76
2022/01/22 07:30:15;;;;;;;8.77;2.95;;;;;;;;;;5066184;28;20469;-75
2022/01/22 07:32:43;;;;;;;11.23;2.85;;;;;;;;;;5072047;28;20749;-75
2022/01/22 07:35:10;;;;;;;11.23;3.15;;;;;;;;;;5070715;28;20439;-75
2022/01/22 07:37:37;;;;;;;14.73;3.38;;;;;;;;;;5065585;28;20516;-78
2022/01/22 07:40:07;;;;;;;10.40;2.58;;;;;;;;;;5058826;28;20851;-79
2022/01/22 07:42:33;;;;;;;13.52;2.83;;;;;;;;;;5062087;28;20430;-78
2022/01/22 07:44:59;;;;;;;10.57;2.50;;;;;;;;;;5069260;28;20419;-78
2022/01/22 07:47:26;;;;;;;7.75;2.35;;;;;;;;;;5101772;28;20453;-78
2022/01/22 07:49:52;;;;;;;12.23;2.50;;;;;;;;;;5065687;28;20431;-78
2022/01/22 07:52:19;;;;;;;7.50;2.30;;;;;;;;;;5076997;28;20427;-79
2022/01/22 07:54:45;;;;;;;12.30;2.80;;;;;;;;;;5056261;28;20411;-79
2022/01/22 07:57:11;;;;;;;10.25;2.60;;;;;;;;;;5048642;28;20431;-78
2022/01/22 07:59:37;;;;;;;9.80;2.40;;;;;;;;;;5069592;28;20526;-78
2022/01/22 08:02:05;;;;;;;14.15;2.92;;;;;;;;;;5039826;28;20431;-78
2022/01/22 08:04:33;;;;;;;10.07;2.88;;;;;;;;;;5071181;28;20431;-79
2022/01/22 08:07:00;;;;;;;12.13;2.60;;;;;;;;;;5071094;28;20435;-78
2022/01/22 08:09:27;;;;;;;11.70;2.90;;;;;;;;;;5090350;28;20421;-79
2022/01/22 08:11:53;;;;;;;10.45;2.58;;;;;;;;;;5076846;28;20477;-79
2022/01/22 08:14:19;;;;;;;12.82;3.08;;;;;;;;;;5086541;28;21007;-79
2022/01/22 08:16:47;;;;;;;11.60;2.88;;;;;;;;;;5079166;28;20420;-78
2022/01/22 08:19:14;;;;;;;11.88;2.83;;;;;;;;;;5083837;28;20419;-79
2022/01/22 08:21:40;;;;;;;12.23;2.83;;;;;;;;;;5065882;28;20526;-79
2022/01/22 08:24:07;;;;;;;13.18;3.28;;;;;;;;;;5057352;28;20937;-80
2022/01/22 08:26:37;;;;;;;12.10;3.58;;;;;;;;;;5074377;28;20499;-77
2022/01/22 08:29:04;;;;;;;14.27;4.35;;;;;;;;;;5062188;28;20495;-78
2022/01/22 08:36:42;;;;;;;14.68;4.00;;;;;;;;;;5058476;28;20803;-77
2022/01/22 08:39:09;;;;;;;12.30;3.63;;;;;;;;;;5058233;28;20423;-76
2022/01/22 08:41:36;;;;;;;20.20;4.03;;;;;;;;;;5072523;28;20419;-75
2022/01/22 08:44:02;;;;;;;15.80;3.92;;;;;;;;;;5089855;28;20422;-75
2022/01/22 08:46:29;;;;;;;14.10;3.80;;;;;;;;;;5074072;28;20494;-76
2022/01/22 08:48:55;;;;;;;14.82;3.80;;;;;;;;;;5105803;27;20520;-76
2022/01/22 08:51:21;;;;;;;13.82;3.70;;;;;;;;;;5096891;28;20431;-76
2022/01/22 08:53:48;;;;;;;18.80;3.90;;;;;;;;;;5071312;28;20498;-78
2022/01/22 08:56:14;;;;;;;13.95;3.63;;;;;;;;;;5058908;28;20427;-78
2022/01/22 08:58:40;;;;;;;18.25;4.03;;;;;;;;;;5060793;28;20431;-78
2022/01/22 09:01:07;;;;;;;22.35;4.75;;;;;;;;;;5049779;28;20481;-77
2022/01/22 09:03:33;;;;;;;22.83;4.20;;;;;;;;;;5058775;28;20550;-77
2022/01/22 09:06:00;;;;;;;19.23;4.00;;;;;;;;;;5057049;28;20488;-76
2022/01/22 09:08:29;;;;;;;21.45;4.45;;;;;;;;;;5056909;28;20505;-76
2022/01/22 09:10:55;;;;;;;25.23;4.78;;;;;;;;;;5073995;28;20461;-77
2022/01/22 09:13:22;;;;;;;15.35;3.97;;;;;;;;;;5077271;28;20811;-76
2022/01/22 09:15:50;;;;;;;14.93;4.30;;;;;;;;;;5063565;28;20959;-77
2022/01/22 09:18:16;;;;;;;22.00;4.30;;;;;;;;;;5074745;28;20412;-77
2022/01/22 09:20:55;;;;;;;21.13;4.22;;;;;;;;;;5074395;28;20421;-77
2022/01/22 09:23:21;;;;;;;18.52;4.10;;;;;;;;;;5074044;28;20512;-77
2022/01/22 09:25:47;;;;;;;17.77;4.20;;;;;;;;;;5106466;27;20418;-77
2022/01/22 09:28:14;;;;;;;16.85;4.40;;;;;;;;;;5075565;28;20545;-77
2022/01/22 09:30:41;;;;;;;16.92;4.28;;;;;;;;;;5073127;28;20426;-76
2022/01/22 09:33:07;;;;;;;18.00;4.95;;;;;;;;;;5076478;28;20423;-76
2022/01/22 09:35:36;;;;;;;16.83;3.90;;;;;;;;;;5077071;28;20437;-77
2022/01/22 09:38:02;;;;;;;18.58;4.10;;;;;;;;;;5071973;28;20426;-77
2022/01/22 09:40:29;;;;;;;17.50;4.50;;;;;;;;;;5105635;27;20553;-77
2022/01/22 09:42:57;;;;;;;16.83;4.20;;;;;;;;;;5092894;27;20475;-77
2022/01/22 09:45:23;;;;;;;17.20;4.30;;;;;;;;;;5075146;28;20549;-76
2022/01/22 09:47:50;;;;;;;18.42;4.53;;;;;;;;;;5073102;28;20431;-76
2022/01/22 09:50:17;;;;;;;14.60;3.78;;;;;;;;;;5070504;28;20429;-76
2022/01/22 09:52:46;;;;;;;17.58;4.53;;;;;;;;;;5069812;28;20422;-77
2022/01/22 09:55:12;;;;;;;23.93;4.80;;;;;;;;;;5075913;28;20505;-77
2022/01/22 09:57:39;;;;;;;21.13;4.22;;;;;;;;;;5076403;28;20422;-76
2022/01/22 10:00:09;;;;;;;17.55;4.38;;;;;;;;;;5090144;28;20941;-76
2022/01/22 10:02:42;;;;;;;22.63;4.57;;;;;;;;;;5072921;28;20410;-77
2022/01/22 10:05:41;;;;;;;26.50;4.78;;;;;;;;;;5074152;28;20426;-78
2022/01/22 10:08:24;;;;;;;13.45;3.95;;;;;;;;;;5041143;28;20420;-78
2022/01/22 10:10:51;;;;;;;19.55;4.30;;;;;;;;;;5073460;28;20917;-78
2022/01/22 10:13:38;;;;;;;19.05;4.72;;;;;;;;;;5074792;28;20423;-78
2022/01/22 10:16:14;;;;;;;17.25;4.68;;;;;;;;;;5070439;28;20492;-79
2022/01/22 10:18:41;;;;;;;19.30;6.43;;;;;;;;;;5090513;28;20510;-78
2022/01/22 10:21:08;;;;;;;18.48;5.13;;;;;;;;;;5088796;28;20406;-78
2022/01/22 10:23:39;;;;;;;18.00;4.30;;;;;;;;;;5055381;28;20812;-77
2022/01/22 10:26:07;;;;;;;15.27;4.50;;;;;;;;;;5072446;28;20940;-77
2022/01/22 10:28:42;;;;;;;17.75;4.18;;;;;;;;;;5054219;28;20416;-76
2022/01/22 10:31:20;;;;;;;21.45;4.72;;;;;;;;;;5073979;28;20407;-77
2022/01/22 10:34:03;;;;;;;13.73;4.13;;;;;;;;;;5078475;28;20467;-76
2022/01/22 10:36:29;;;;;;;17.40;4.57;;;;;;;;;;5076106;28;20442;-76
2022/01/22 10:38:55;;;;;;;16.17;4.40;;;;;;;;;;5078397;28;21042;-76
2022/01/22 10:41:42;;;;;;;15.48;4.55;;;;;;;;;;5061306;28;20915;-76
2022/01/22 10:44:10;;;;;;;13.13;4.45;;;;;;;;;;5075792;28;20505;-76
2022/01/22 10:46:51;;;;;;;19.08;4.30;;;;;;;;;;5072032;28;20407;-76
2022/01/22 10:49:24;;;;;;;12.57;4.15;;;;;;;;;;5071992;28;20424;-76
2022/01/22 10:51:51;;;;;;;17.02;4.85;;;;;;;;;;5054057;28;20435;-75
2022/01/22 10:54:22;;;;;;;14.18;4.07;;;;;;;;;;5073294;28;20531;-75
2022/01/22 10:56:49;;;;;;;12.77;4.15;;;;;;;;;;5073877;28;20427;-78
2022/01/22 10:59:17;;;;;;;14.95;4.13;;;;;;;;;;5082113;28;20419;-76
2022/01/22 11:01:46;;;;;;;14.05;4.07;;;;;;;;;;5085772;28;20481;-77
2022/01/22 11:04:13;;;;;;;14.90;3.90;;;;;;;;;;5116533;27;20422;-78
2022/01/22 11:06:46;;;;;;;16.83;3.97;;;;;;;;;;5076034;28;20465;-77
2022/01/22 11:09:12;;;;;;;13.07;4.13;;;;;;;;;;5074784;28;20861;-77
2022/01/22 11:11:41;;;;;;;15.68;3.90;;;;;;;;;;5072901;28;20419;-76
2022/01/22 11:14:08;;;;;;;14.77;4.35;;;;;;;;;;5109906;27;20413;-76
2022/01/22 11:16:35;;;;;;;15.52;4.72;;;;;;;;;;5068373;28;20595;-76
2022/01/22 11:19:02;;;;;;;14.18;4.78;;;;;;;;;;5072115;28;20907;-76
2022/01/22 11:21:28;;;;;;;16.67;4.47;;;;;;;;;;5075760;28;20473;-77
2022/01/22 11:23:54;;;;;;;16.13;4.80;;;;;;;;;;5072545;28;20422;-77
2022/01/22 11:26:21;;;;;;;16.55;4.90;;;;;;;;;;5067518;28;20550;-76
2022/01/22 11:28:48;;;;;;;19.58;4.85;;;;;;;;;;5070702;28;20926;-75
2022/01/22 11:31:17;;;;;;;18.10;5.45;;;;;;;;;;5087484;28;20422;-75
2022/01/22 11:33:44;;;;;;;16.85;5.60;;;;;;;;;;5077742;28;20502;-76
2022/01/22 11:36:22;;;;;;;16.42;5.47;;;;;;;;;;5081506;28;20430;-76
2022/01/22 11:38:55;;;;;;;21.65;5.95;;;;;;;;;;5070510;28;20437;-76
2022/01/22 11:41:25;;;;;;;17.13;6.28;;;;;;;;;;5080451;28;20411;-76
2022/01/22 11:44:04;;;;;;;20.88;6.55;;;;;;;;;;5072333;28;20420;-77
2022/01/22 11:46:35;;;;;;;22.67;6.88;;;;;;;;;;5072532;28;20430;-76
2022/01/22 11:49:22;;;;;;;20.15;6.85;;;;;;;;;;5080797;28;20412;-76
2022/01/22 11:51:52;;;;;;;20.60;6.80;;;;;;;;;;5079167;28;20929;-76
2022/01/22 11:54:19;;;;;;;20.40;6.67;;;;;;;;;;5080900;28;20410;-78
2022/01/22 11:56:55;;;;;;;21.33;7.13;;;;;;;;;;5072177;28;20443;-78
2022/01/22 11:59:27;;;;;;;20.27;7.30;;;;;;;;;;5078058;28;20414;-77
2022/01/22 12:01:56;;;;;;;21.05;6.32;;;;;;;;;;5113226;27;20406;-77
2022/01/22 12:04:22;;;;;;;22.55;6.30;;;;;;;;;;5072222;28;20982;-78
2022/01/22 12:07:03;;;;;;;18.47;6.57;;;;;;;;;;5075518;28;20878;-76
2022/01/22 12:09:32;;;;;;;17.48;6.68;;;;;;;;;;5074652;28;20525;-77
2022/01/22 12:14:50;;;;;;;20.70;7.75;;;;;;;;;;5091315;27;20420;-77
2022/01/22 12:17:29;;;;;;;22.23;6.97;;;;;;;;;;5076122;28;20464;-77
2022/01/22 12:22:40;;;;;;;20.50;6.00;;;;;;;;;;5074458;28;20406;-77
2022/01/22 12:25:09;;;;;;;21.17;6.13;;;;;;;;;;5064160;28;20420;-77
2022/01/22 12:27:42;;;;;;;15.52;5.43;;;;;;;;;;5076820;28;20496;-77
2022/01/22 12:30:08;;;;;;;14.23;4.55;;;;;;;;;;5062707;28;20415;-76
2022/01/22 12:32:44;;;;;;;16.58;4.25;;;;;;;;;;5080990;28;20495;-77
2022/01/22 12:35:14;;;;;;;16.15;4.40;;;;;;;;;;5097259;28;20517;-76
2022/01/22 12:37:43;;;;;;;15.93;4.20;;;;;;;;;;5073277;28;20845;-77
2022/01/22 12:40:12;;;;;;;17.40;4.70;;;;;;;;;;5062720;28;20451;-76
2022/01/22 12:43:02;;;;;;;18.17;5.93;;;;;;;;;;5076177;28;20459;-76
2022/01/22 12:45:29;;;;;;;18.70;5.88;;;;;;;;;;5074844;28;20468;-75
2022/01/22 12:47:55;;;;;;;16.45;4.22;;;;;;;;;;5076963;28;20445;-76
2022/01/22 12:50:26;;;;;;;15.80;4.50;;;;;;;;;;5076357;28;20422;-76
2022/01/22 12:52:52;;;;;;;16.83;4.90;;;;;;;;;;5108626;27;20418;-76
2022/01/22 12:55:23;;;;;;;14.98;4.72;;;;;;;;;;5072767;28;20488;-77
2022/01/22 12:57:49;;;;;;;16.60;4.70;;;;;;;;;;5072628;28;20447;-77
2022/01/22 13:00:18;;;;;;;12.23;4.10;;;;;;;;;;5093505;28;20410;-77
2022/01/22 13:02:46;;;;;;;13.02;4.30;;;;;;;;;;5042943;28;20774;-77
2022/01/22 13:05:15;;;;;;;13.85;3.97;;;;;;;;;;5075665;28;20424;-78
2022/01/22 13:07:43;;;;;;;14.85;4.25;;;;;;;;;;5074815;28;20415;-76
2022/01/22 13:10:10;;;;;;;14.80;4.05;;;;;;;;;;5072217;28;20426;-77
2022/01/22 13:12:40;;;;;;;12.18;3.60;;;;;;;;;;5060205;28;20731;-77
2022/01/22 13:15:10;;;;;;;14.38;4.07;;;;;;;;;;5078062;28;20422;-77
2022/01/22 13:17:36;;;;;;;15.10;3.95;;;;;;;;;;5073702;28;20422;-77
2022/01/22 13:20:04;;;;;;;16.83;4.47;;;;;;;;;;5083184;28;20429;-76
2022/01/22 13:22:34;;;;;;;14.43;4.43;;;;;;;;;;5075604;28;21368;-76
2022/01/22 13:25:07;;;;;;;16.97;4.80;;;;;;;;;;5071611;28;20540;-77
2022/01/22 13:27:35;;;;;;;14.00;3.40;;;;;;;;;;5072611;28;20877;-76
2022/01/22 13:30:01;;;;;;;14.80;3.88;;;;;;;;;;5066665;28;20413;-77
2022/01/22 13:33:05;;;;;;;12.98;3.10;;;;;;;;;;5049320;28;20410;-77
2022/01/22 13:35:32;;;;;;;9.63;2.63;;;;;;;;;;5070542;28;20478;-77
2022/01/22 13:38:25;;;;;;;9.45;2.50;;;;;;;;;;5073303;28;20420;-77
2022/01/22 13:49:04;;;;;;;11.05;2.35;;;;;;;;;;5042617;28;20421;-78
2022/01/22 13:51:31;;;;;;;11.07;2.25;;;;;;;;;;5054638;28;20420;-77
2022/01/22 13:53:58;;;;;;;7.15;2.00;;;;;;;;;;5025286;28;20421;-78
2022/01/22 13:56:58;;;;;;;8.93;2.13;;;;;;;;;;5042027;28;20429;-77
2022/01/22 13:59:30;;;;;;;7.90;2.07;;;;;;;;;;5011386;28;20448;-78
2022/01/22 14:04:39;;;;;;;9.70;2.40;;;;;;;;;;5049172;28;20447;-77
2022/01/22 14:07:14;;;;;;;11.48;3.15;;;;;;;;;;5068988;28;20502;-77
2022/01/22 14:09:50;;;;;;;20.58;8.77;;;;;;;;;;5056417;28;20415;-77
2022/01/22 14:12:16;;;;;;;14.70;6.90;;;;;;;;;;5061828;28;20496;-78
2022/01/22 14:15:00;;;;;;;12.00;4.25;;;;;;;;;;5057155;28;20806;-77
2022/01/22 14:17:31;;;;;;;11.20;3.77;;;;;;;;;;5038955;28;20485;-78
2022/01/22 14:20:03;;;;;;;10.32;3.47;;;;;;;;;;5052964;28;20429;-78
2022/01/22 14:22:30;;;;;;;28.05;14.93;;;;;;;;;;5056861;28;20413;-78
2022/01/22 14:25:09;;;;;;;11.68;3.22;;;;;;;;;;5051337;28;20417;-80
2022/01/22 14:27:35;;;;;;;15.57;6.23;;;;;;;;;;5063087;28;20923;-80
2022/01/22 14:30:01;;;;;;;21.48;8.50;;;;;;;;;;5049715;28;20428;-80
2022/01/22 14:32:29;;;;;;;40.67;23.00;;;;;;;;;;5049765;28;20409;-80
2022/01/22 14:34:55;;;;;;;15.25;6.95;;;;;;;;;;5038474;28;20439;-80
2022/01/22 14:37:27;;;;;;;13.23;3.72;;;;;;;;;;5057200;28;20763;-79
2022/01/22 14:45:27;;;;;;;48.63;22.83;;;;;;;;;;5072922;28;20905;-80
2022/01/22 14:47:54;;;;;;;35.45;16.33;;;;;;;;;;5059353;28;20449;-80
2022/01/22 14:50:21;;;;;;;23.13;13.77;;;;;;;;;;5063909;28;20425;-80
2022/01/22 14:52:49;;;;;;;15.00;3.42;;;;;;;;;;5089382;28;20477;-79
2022/01/22 14:55:15;;;;;;;12.10;2.67;;;;;;;;;;5091831;28;20439;-80
2022/01/22 14:57:43;;;;;;;14.10;5.80;;;;;;;;;;5056751;28;20918;-81
2022/01/22 15:00:10;;;;;;;10.48;2.42;;;;;;;;;;5077778;28;20475;-79
2022/01/22 15:02:39;;;;;;;12.80;3.50;;;;;;;;;;5078399;28;20422;-79
2022/01/22 15:05:08;;;;;;;9.73;3.03;;;;;;;;;;5092373;28;20508;-77
2022/01/22 15:07:34;;;;;;;9.50;2.40;;;;;;;;;;5072271;28;20419;-79
2022/01/22 15:10:00;;;;;;;9.20;2.92;;;;;;;;;;5071331;28;21136;-79
2022/01/22 15:12:26;;;;;;;13.00;3.37;;;;;;;;;;5074290;28;20426;-79
2022/01/22 15:14:53;;;;;;;10.05;3.03;;;;;;;;;;5079285;28;20803;-80
2022/01/22 15:19:46;;;;;;;12.88;3.33;;;;;;;;;;5079139;28;20415;-79
2022/01/22 15:22:16;;;;;;;9.30;2.90;;;;;;;;;;5081418;28;20744;-80
2022/01/22 15:24:44;;;;;;;9.63;2.63;;;;;;;;;;5088111;28;20436;-79
2022/01/22 15:27:12;;;;;;;9.65;2.67;;;;;;;;;;5096468;28;20408;-79
2022/01/22 15:29:53;;;;;;;12.65;2.70;;;;;;;;;;5068802;28;20419;-79
2022/01/22 15:32:38;;;;;;;9.25;2.60;;;;;;;;;;5075544;28;20927;-79
2022/01/22 15:35:06;;;;;;;11.50;2.90;;;;;;;;;;5072596;28;20415;-79
2022/01/22 15:37:33;;;;;;;11.10;3.20;;;;;;;;;;5074085;28;20808;-79
2022/01/22 15:40:00;;;;;;;10.57;2.80;;;;;;;;;;5055387;28;20466;-79
2022/01/22 15:42:26;;;;;;;9.02;3.00;;;;;;;;;;5075882;28;20429;-79
2022/01/22 15:44:52;;;;;;;10.35;3.20;;;;;;;;;;5078438;28;20418;-76
2022/01/22 15:47:18;;;;;;;9.13;2.47;;;;;;;;;;5058500;28;20440;-78
2022/01/22 15:49:46;;;;;;;9.70;2.88;;;;;;;;;;5056280;28;20493;-78
2022/01/22 15:52:12;;;;;;;11.75;2.67;;;;;;;;;;5082030;28;20467;-78
2022/01/22 15:54:41;;;;;;;8.32;2.88;;;;;;;;;;5071980;28;20423;-78
2022/01/22 15:57:09;;;;;;;9.68;4.00;;;;;;;;;;5112650;27;20418;-78
2022/01/22 15:59:35;;;;;;;10.25;3.70;;;;;;;;;;5075082;28;20437;-78
2022/01/22 16:02:01;;;;;;;13.32;3.53;;;;;;;;;;5075306;28;20417;-78
2022/01/22 16:04:27;;;;;;;11.18;4.00;;;;;;;;;;5077018;28;20419;-78
2022/01/22 16:09:21;;;;;;;11.32;3.90;;;;;;;;;;5075620;28;20425;-78
2022/01/22 16:11:47;;;;;;;11.15;3.95;;;;;;;;;;5059843;28;20867;-79
2022/01/22 16:14:14;;;;;;;12.85;4.00;;;;;;;;;;5071551;28;20415;-81
2022/01/22 16:16:42;;;;;;;12.02;4.22;;;;;;;;;;5066323;28;20420;-78
2022/01/22 16:19:09;;;;;;;10.93;4.47;;;;;;;;;;5072307;28;20416;-78
2022/01/22 16:21:35;;;;;;;8.05;3.42;;;;;;;;;;5079628;28;20451;-78
2022/01/22 16:24:02;;;;;;;9.77;3.07;;;;;;;;;;5071453;28;20496;-78
2022/01/22 16:26:28;;;;;;;14.85;6.82;;;;;;;;;;5104483;27;20493;-79
2022/01/22 16:28:54;;;;;;;17.95;7.43;;;;;;;;;;5058832;28;20909;-79
2022/01/22 16:31:20;;;;;;;9.05;3.15;;;;;;;;;;5072623;28;21002;-79
2022/01/22 16:33:47;;;;;;;11.05;2.50;;;;;;;;;;5051352;28;20414;-78
2022/01/22 16:36:13;;;;;;;12.15;4.25;;;;;;;;;;5073647;28;20788;-78
2022/01/22 16:38:41;;;;;;;6.57;2.60;;;;;;;;;;5074789;28;20525;-79
2022/01/22 16:41:08;;;;;;;14.68;6.93;;;;;;;;;;5063783;28;20418;-79